Time;durP1;ratioP1;P1;durP2;ratioP2;P2;SDS_P1;SDS_P2;PMS_P1;PMS_P2;Temp;Humidity;BMP_temperature;BMP_pressure;BME280_temperature;BME280_humidity;BME280_pressure;Samples;Min_cycle;Max_cycle;Signal;HPM_P1;HPM_P2
2022/02/12 00:00:40;;;;;;;1.27;0.20;;;;;;;19.33;41.49;101810.19;4990122;28;20022;-41
2022/02/12 00:03:07;;;;;;;0.52;0.20;;;;;;;19.32;41.19;101808.53;4972791;28;20129;-40
2022/02/12 00:05:32;;;;;;;0.70;0.20;;;;;;;19.31;41.17;101809.53;4990414;28;20026;-39
2022/02/12 00:07:59;;;;;;;2.20;0.20;;;;;;;19.31;41.08;101806.88;5000351;28;20056;-40
2022/02/12 00:10:27;;;;;;;0.52;0.20;;;;;;;19.30;41.15;101815.81;5009375;28;20030;-39
2022/02/12 00:12:54;;;;;;;0.80;0.20;;;;;;;19.30;40.93;101825.56;5001096;28;20038;-42
2022/02/12 00:15:19;;;;;;;1.48;0.20;;;;;;;19.28;41.30;101823.06;4990401;28;20344;-40
2022/02/12 00:17:45;;;;;;;0.45;0.20;;;;;;;19.26;41.12;101830.34;4998082;28;20022;-41
2022/02/12 00:20:13;;;;;;;1.13;0.30;;;;;;;19.25;41.12;101831.34;5009904;28;20044;-41
2022/02/12 00:22:39;;;;;;;0.77;0.20;;;;;;;19.23;41.05;101838.59;5009428;28;20158;-41
2022/02/12 00:25:05;;;;;;;1.25;0.20;;;;;;;19.22;41.10;101834.31;4980372;28;20116;-39
2022/02/12 00:27:31;;;;;;;0.40;0.20;;;;;;;19.21;41.07;101853.81;5001677;28;20612;-40
2022/02/12 00:29:57;;;;;;;0.43;0.20;;;;;;;19.19;41.05;101843.41;5009565;28;20026;-40
2022/02/12 00:32:23;;;;;;;0.30;0.10;;;;;;;19.19;41.05;101855.78;5009719;28;20057;-41
2022/02/12 00:34:49;;;;;;;0.40;0.10;;;;;;;19.19;40.99;101855.78;5009113;28;20500;-41
2022/02/12 00:37:16;;;;;;;0.57;0.20;;;;;;;19.18;40.97;101859.41;5006246;28;20367;-42
2022/02/12 00:39:41;;;;;;;0.50;0.32;;;;;;;19.17;40.95;101865.69;4990088;28;20037;-41
2022/02/12 00:42:07;;;;;;;0.63;0.20;;;;;;;19.16;41.00;101880.72;4989553;28;20035;-40
2022/02/12 00:44:33;;;;;;;0.40;0.10;;;;;;;19.16;40.99;101864.03;4989595;28;20762;-41
2022/02/12 00:46:59;;;;;;;0.45;0.17;;;;;;;19.14;40.91;101871.31;4971932;28;20105;-41
2022/02/12 00:49:25;;;;;;;0.30;0.10;;;;;;;19.13;40.93;101878.41;5009256;28;20044;-40
2022/02/12 00:51:51;;;;;;;0.35;0.10;;;;;;;19.12;41.02;101879.41;5009076;28;20497;-42
2022/02/12 00:54:17;;;;;;;0.32;0.10;;;;;;;19.12;40.96;101875.94;5009191;28;20036;-40
2022/02/12 00:56:42;;;;;;;0.30;0.10;;;;;;;19.11;41.02;101863.72;5007649;28;20033;-40
2022/02/12 00:59:08;;;;;;;0.43;0.20;;;;;;;19.11;40.98;101874.28;4990674;28;20386;-44
2022/02/12 01:01:34;;;;;;;0.20;0.10;;;;;;;19.12;41.19;101887.31;4989367;28;20476;-38
2022/02/12 01:04:01;;;;;;;0.50;0.20;;;;;;;19.11;41.19;101880.38;4989380;28;20064;-38
2022/02/12 01:06:28;;;;;;;0.50;0.20;;;;;;;19.11;40.95;101874.28;4989163;28;20038;-40
2022/02/12 01:08:53;;;;;;;0.40;0.20;;;;;;;19.10;40.98;101878.75;5003945;28;20029;-41
2022/02/12 01:11:19;;;;;;;0.32;0.20;;;;;;;19.11;40.95;101882.22;5008407;28;20032;-41
2022/02/12 01:13:45;;;;;;;0.50;0.20;;;;;;;19.12;41.02;101886.50;4995814;28;20513;-40
2022/02/12 01:16:10;;;;;;;0.38;0.10;;;;;;;19.11;41.13;101884.84;4989354;28;20342;-39
2022/02/12 01:18:35;;;;;;;0.55;0.30;;;;;;;19.09;40.92;101881.53;5001314;28;20505;-39
2022/02/12 01:21:01;;;;;;;0.80;0.20;;;;;;;19.09;40.83;101877.09;5008150;28;20069;-39
2022/02/12 01:23:27;;;;;;;0.50;0.20;;;;;;;19.08;40.79;101882.53;5008618;28;20034;-40
2022/02/12 01:25:52;;;;;;;0.30;0.10;;;;;;;19.07;40.88;101887.00;5008485;28;20536;-38
2022/02/12 01:28:19;;;;;;;0.32;0.10;;;;;;;19.06;40.94;101897.72;4997681;28;20153;-40
2022/02/12 01:30:45;;;;;;;0.30;0.10;;;;;;;19.04;41.05;101889.97;4988039;28;20042;-40
2022/02/12 01:33:13;;;;;;;1.15;0.10;;;;;;;19.03;41.03;101892.78;4988496;28;20045;-40
2022/02/12 01:35:39;;;;;;;0.22;0.10;;;;;;;19.01;41.11;101898.22;4989037;28;20443;-42
2022/02/12 01:38:05;;;;;;;0.30;0.10;;;;;;;19.02;41.05;101885.84;5000171;28;20042;-41
2022/02/12 01:40:31;;;;;;;0.60;0.20;;;;;;;19.04;41.07;101883.84;5007967;28;20497;-41
2022/02/12 01:43:01;;;;;;;1.42;0.10;;;;;;;19.04;41.03;101878.56;5007642;28;20077;-39
2022/02/12 01:45:27;;;;;;;0.45;0.10;;;;;;;19.05;41.12;101885.50;5007836;28;20037;-38
2022/02/12 01:47:52;;;;;;;0.25;0.10;;;;;;;19.06;41.47;101876.59;4997821;28;20030;-41
2022/02/12 01:50:18;;;;;;;0.20;0.10;;;;;;;19.04;40.94;101876.75;4988338;28;20065;-41
2022/02/12 01:52:44;;;;;;;0.32;0.17;;;;;;;19.04;41.00;101882.03;4992394;28;20045;-38
2022/02/12 01:55:09;;;;;;;0.43;0.20;;;;;;;19.04;40.84;101883.84;5007985;28;20611;-40
2022/02/12 01:57:36;;;;;;;0.20;0.10;;;;;;;19.04;40.74;101873.28;5000439;28;20485;-39
2022/02/12 02:00:08;;;;;;;0.30;0.10;;;;;;;19.03;40.77;101874.28;4988210;28;20030;-40
2022/02/12 02:02:33;;;;;;;0.40;0.10;;;;;;;19.03;40.82;101883.03;4988164;28;20118;-41
2022/02/12 02:04:59;;;;;;;0.30;0.10;;;;;;;19.03;40.88;101890.97;4987887;28;20063;-39
2022/02/12 02:07:25;;;;;;;0.73;0.10;;;;;;;19.01;40.94;101889.47;4993188;28;20030;-41
2022/02/12 02:09:51;;;;;;;0.43;0.10;;;;;;;19.00;40.81;101886.00;5006618;28;20030;-41
2022/02/12 02:12:17;;;;;;;1.05;0.10;;;;;;;19.00;40.72;101886.00;5234498;23;20452;-42
2022/02/12 02:14:42;;;;;;;3.50;0.10;;;;;;;19.00;40.55;101887.81;5047341;28;20043;-40
2022/02/12 02:17:10;;;;;;;0.20;0.10;;;;;;;19.00;40.70;101893.09;5047145;28;20168;-44
2022/02/12 02:19:36;;;;;;;0.50;0.20;;;;;;;18.99;40.79;101902.00;5047355;28;20108;-41
2022/02/12 02:22:03;;;;;;;0.30;0.10;;;;;;;18.99;40.92;101902.84;5046283;28;20025;-44
2022/02/12 02:24:29;;;;;;;0.30;0.10;;;;;;;18.99;40.96;101908.13;5046042;28;20427;-38
2022/02/12 02:27:18;;;;;;;0.30;0.17;;;;;;;18.96;41.14;101902.34;5046732;28;20128;-41
2022/02/12 02:29:45;;;;;;;0.30;0.10;;;;;;;18.96;41.27;101905.81;5046135;28;20037;-39
2022/02/12 02:32:12;;;;;;;0.30;0.10;;;;;;;18.97;40.99;101914.56;5046891;28;20029;-39
2022/02/12 02:34:47;;;;;;;0.25;0.10;;;;;;;18.96;41.23;101910.25;5046313;28;20036;-41
2022/02/12 02:37:13;;;;;;;0.10;0.10;;;;;;;18.95;41.16;101911.25;5045923;28;20132;-38
2022/02/12 02:39:38;;;;;;;0.90;0.10;;;;;;;18.92;41.14;101915.03;5046283;28;20044;-41
2022/02/12 02:42:04;;;;;;;0.30;0.10;;;;;;;18.92;41.20;101911.56;5046399;28;20136;-41
2022/02/12 02:44:30;;;;;;;3.20;0.08;;;;;;;18.90;41.08;101915.22;5046364;28;20037;-41
2022/02/12 02:46:55;;;;;;;0.85;0.05;;;;;;;18.88;41.16;101922.50;5046318;28;20025;-39
2022/02/12 02:49:21;;;;;;;0.35;0.00;;;;;;;18.87;41.19;101920.03;5045995;28;20082;-41
2022/02/12 02:57:14;;;;;;;1.10;0.10;;;;;;;18.83;41.26;101932.72;5046521;28;20423;-42
2022/02/12 02:59:40;;;;;;;0.20;0.10;;;;;;;18.83;41.19;101927.44;5045794;28;20037;-39
2022/02/12 03:02:05;;;;;;;0.40;0.10;;;;;;;18.84;41.25;101941.47;5046235;28;20025;-40
2022/02/12 03:04:31;;;;;;;0.10;0.05;;;;;;;18.82;41.32;101939.00;5045837;28;20060;-42
2022/02/12 03:06:57;;;;;;;0.50;0.10;;;;;;;18.82;41.16;101939.00;5046271;28;20449;-41
2022/02/12 03:09:22;;;;;;;0.40;0.10;;;;;;;18.81;41.28;101936.50;5046149;28;20039;-41
2022/02/12 03:11:49;;;;;;;0.15;0.10;;;;;;;18.80;41.35;101927.75;5045504;28;20498;-44
2022/02/12 03:14:14;;;;;;;0.35;0.10;;;;;;;18.80;41.28;101946.25;5027930;28;20029;-39
2022/02/12 03:16:40;;;;;;;0.50;0.10;;;;;;;18.78;41.29;101942.13;5046018;28;20036;-38
2022/02/12 03:19:06;;;;;;;0.88;0.10;;;;;;;18.78;41.16;101934.19;5045931;28;20033;-40
2022/02/12 03:21:31;;;;;;;0.35;0.10;;;;;;;18.78;41.32;101934.19;5031577;28;20395;-39
2022/02/12 03:23:57;;;;;;;1.77;0.05;;;;;;;18.79;41.40;101944.59;5049924;28;20358;-40
2022/02/12 03:26:23;;;;;;;0.22;0.10;;;;;;;18.80;41.42;101942.78;5049602;28;20035;-40
2022/02/12 03:28:48;;;;;;;0.13;0.10;;;;;;;18.80;41.46;101945.41;5031831;28;20120;-39
2022/02/12 03:31:14;;;;;;;0.43;0.10;;;;;;;18.80;41.40;101940.97;5049721;28;20029;-41
2022/02/12 03:33:40;;;;;;;0.20;0.10;;;;;;;18.80;41.33;101935.69;5049895;28;20028;-42
2022/02/12 03:36:05;;;;;;;0.35;0.10;;;;;;;18.82;41.42;101946.09;5049912;28;20060;-40
2022/02/12 03:38:35;;;;;;;0.20;0.08;;;;;;;18.80;41.17;101943.59;5050042;28;20032;-39
2022/02/12 03:41:03;;;;;;;0.20;0.10;;;;;;;18.79;41.20;101934.03;5031546;28;20461;-41
2022/02/12 03:43:30;;;;;;;0.20;0.10;;;;;;;18.80;41.30;101940.97;5049618;28;20059;-41
2022/02/12 03:45:57;;;;;;;0.20;0.10;;;;;;;18.79;41.33;101947.25;5049552;28;20028;-38
2022/02/12 03:48:24;;;;;;;0.40;0.08;;;;;;;18.79;41.42;101941.13;5049083;28;20148;-39
2022/02/12 03:50:52;;;;;;;0.10;0.00;;;;;;;18.79;41.38;101936.69;5049521;28;20067;-43
2022/02/12 03:53:18;;;;;;;1.42;0.00;;;;;;;18.79;41.33;101927.94;5049765;28;20045;-42
2022/02/12 03:55:43;;;;;;;0.30;0.00;;;;;;;18.79;41.26;101938.50;5049602;28;20368;-41
2022/02/12 03:58:11;;;;;;;0.20;0.10;;;;;;;18.79;41.14;101941.97;5049576;28;20033;-39
2022/02/12 04:00:38;;;;;;;0.17;0.10;;;;;;;18.79;41.18;101938.50;5049165;28;20029;-41
2022/02/12 04:03:04;;;;;;;0.10;0.10;;;;;;;18.77;41.19;101946.56;5049404;28;20543;-42
2022/02/12 04:05:30;;;;;;;0.20;0.10;;;;;;;18.78;41.23;101948.22;5049455;28;20035;-46
2022/02/12 04:07:56;;;;;;;0.17;0.08;;;;;;;18.78;41.33;101950.03;5048858;28;20238;-39
2022/02/12 04:10:22;;;;;;;0.20;0.10;;;;;;;18.77;41.25;101951.84;5049514;28;20031;-43
2022/02/12 04:12:53;;;;;;;0.52;0.10;;;;;;;18.78;41.42;101955.31;5048763;28;20053;-41
2022/02/12 04:15:20;;;;;;;0.75;0.10;;;;;;;18.76;41.35;101944.91;5049057;28;20037;-42
2022/02/12 04:17:47;;;;;;;0.20;0.03;;;;;;;18.76;41.32;101950.19;5049188;28;20480;-43
2022/02/12 04:20:15;;;;;;;0.40;0.10;;;;;;;18.76;41.44;101946.72;5048838;28;20388;-41
2022/02/12 04:22:41;;;;;;;0.38;0.10;;;;;;;18.75;41.32;101951.19;5048929;28;20106;-41
2022/02/12 04:25:11;;;;;;;0.10;0.10;;;;;;;18.75;41.43;101953.00;5048644;28;20036;-42
2022/02/12 04:27:37;;;;;;;0.20;0.00;;;;;;;18.73;41.28;101954.97;5048962;28;20043;-40
2022/02/12 04:30:05;;;;;;;0.10;0.10;;;;;;;18.71;41.29;101956.94;5048731;28;20029;-40
2022/02/12 04:32:30;;;;;;;0.45;0.10;;;;;;;18.71;41.00;101967.50;5047809;28;20033;-41
2022/02/12 04:34:56;;;;;;;0.38;0.00;;;;;;;18.69;40.83;101957.09;5048623;28;20028;-39
2022/02/12 04:37:22;;;;;;;0.22;0.10;;;;;;;18.70;40.95;101956.13;5048563;28;20029;-42
2022/02/12 04:39:49;;;;;;;0.10;0.00;;;;;;;18.69;40.96;101957.09;5030727;28;20040;-43
2022/02/12 04:42:16;;;;;;;0.68;0.10;;;;;;;18.70;40.99;101960.56;5048711;28;20025;-40
2022/02/12 04:44:46;;;;;;;0.28;0.10;;;;;;;18.69;41.05;101965.03;5048519;28;20369;-42
2022/02/12 04:47:12;;;;;;;0.10;0.00;;;;;;;18.69;41.21;101965.03;5048516;28;20040;-40
2022/02/12 04:49:39;;;;;;;0.38;0.00;;;;;;;18.69;41.24;101954.47;5048274;28;20400;-42
2022/02/12 04:52:06;;;;;;;0.40;0.03;;;;;;;18.69;41.21;101958.94;5048446;28;20130;-42
2022/02/12 04:54:32;;;;;;;0.57;0.10;;;;;;;18.67;41.29;101956.44;5048240;28;20406;-40
2022/02/12 04:56:59;;;;;;;0.38;0.10;;;;;;;18.67;40.90;101967.00;5047970;28;20032;-42
2022/02/12 04:59:25;;;;;;;0.20;0.00;;;;;;;18.67;40.98;101966.19;5048234;28;20037;-42
2022/02/12 05:01:51;;;;;;;0.10;0.00;;;;;;;18.64;40.96;101969.97;5048105;28;20029;-39
2022/02/12 05:04:20;;;;;;;0.10;0.00;;;;;;;18.62;41.04;101971.94;5048039;28;20028;-40
2022/02/12 05:06:46;;;;;;;0.10;0.03;;;;;;;18.61;41.09;101980.84;5047951;28;20075;-42
2022/02/12 05:09:13;;;;;;;0.20;0.00;;;;;;;18.62;41.06;101981.66;5048226;28;20029;-41
2022/02/12 05:11:44;;;;;;;0.20;0.00;;;;;;;18.61;41.01;101987.94;5047735;28;20033;-41
2022/02/12 05:14:10;;;;;;;0.10;0.00;;;;;;;18.59;41.15;101990.69;5048344;28;20033;-40
2022/02/12 05:16:36;;;;;;;0.85;0.00;;;;;;;18.58;41.09;101984.59;5048065;28;20128;-39
2022/02/12 05:19:03;;;;;;;0.57;0.10;;;;;;;18.57;40.96;101990.03;5029398;28;20056;-42
2022/02/12 05:21:29;;;;;;;0.10;0.00;;;;;;;18.57;41.11;101995.31;5029377;28;20319;-39
2022/02/12 05:23:54;;;;;;;0.10;0.00;;;;;;;18.57;41.06;101992.66;5048094;28;20303;-41
2022/02/12 05:26:20;;;;;;;1.10;0.00;;;;;;;18.56;41.13;101988.38;5047437;28;20100;-42
2022/02/12 05:28:45;;;;;;;0.10;0.00;;;;;;;18.54;41.09;101982.44;5047849;28;20037;-47
2022/02/12 05:31:11;;;;;;;0.50;0.08;;;;;;;18.53;41.09;101999.25;5047681;28;20053;-42
2022/02/12 05:33:37;;;;;;;0.40;0.00;;;;;;;18.52;41.11;101994.97;5047385;28;20025;-42
2022/02/12 05:36:07;;;;;;;0.20;0.10;;;;;;;18.50;40.96;101994.28;5047699;28;20033;-42
2022/02/12 05:38:36;;;;;;;0.10;0.00;;;;;;;18.50;40.97;101994.28;5047577;28;20025;-42
2022/02/12 05:41:02;;;;;;;0.45;0.10;;;;;;;18.49;41.09;102001.38;5047674;28;20029;-39
2022/02/12 05:43:28;;;;;;;0.55;0.10;;;;;;;18.50;41.03;102002.22;5047448;28;20032;-39
2022/02/12 05:45:53;;;;;;;0.20;0.08;;;;;;;18.51;41.10;102009.97;5047142;28;20033;-42
2022/02/12 05:48:20;;;;;;;0.30;0.10;;;;;;;18.52;41.03;102005.50;5047476;28;20056;-40
2022/02/12 05:50:46;;;;;;;0.20;0.00;;;;;;;18.52;41.07;102003.72;5047278;28;20029;-42
2022/02/12 05:53:11;;;;;;;0.10;0.00;;;;;;;18.53;41.16;102017.72;5046839;28;20083;-42
2022/02/12 05:55:37;;;;;;;0.17;0.10;;;;;;;18.52;41.22;102008.97;5047439;28;20029;-41
2022/02/12 05:58:03;;;;;;;0.47;0.03;;;;;;;18.53;41.04;102023.00;5047386;28;20132;-40
2022/02/12 06:00:29;;;;;;;0.20;0.10;;;;;;;18.52;41.19;102010.78;5046416;28;20032;-43
2022/02/12 06:02:54;;;;;;;0.40;0.00;;;;;;;18.51;41.05;102015.25;5045447;28;20025;-41
2022/02/12 06:05:21;;;;;;;0.60;0.08;;;;;;;18.51;40.86;102023.16;5046900;28;20044;-42
2022/02/12 06:07:46;;;;;;;0.63;0.10;;;;;;;18.51;40.79;102031.09;5046792;28;20123;-45
2022/02/12 06:10:13;;;;;;;0.40;0.10;;;;;;;18.50;40.76;102032.06;5047347;28;20520;-43
2022/02/12 06:12:42;;;;;;;0.40;0.08;;;;;;;18.51;40.89;102023.16;5036585;28;20143;-41
2022/02/12 06:15:08;;;;;;;0.13;0.00;;;;;;;18.51;41.04;102052.19;5066767;28;20036;-41
2022/02/12 06:17:34;;;;;;;0.43;0.00;;;;;;;18.52;40.85;102037.19;5067132;28;20024;-41
2022/02/12 06:20:00;;;;;;;0.20;0.10;;;;;;;18.51;40.83;102041.63;5066698;28;20079;-40
2022/02/12 06:22:27;;;;;;;0.15;0.00;;;;;;;18.50;40.65;102045.25;5066330;28;20032;-44
2022/02/12 06:24:53;;;;;;;0.10;0.00;;;;;;;18.51;40.66;102051.38;5048572;28;20047;-43
2022/02/12 06:27:19;;;;;;;1.80;0.10;;;;;;;18.50;40.72;102055.81;5066833;28;20031;-41
2022/02/12 06:29:45;;;;;;;0.10;0.00;;;;;;;18.50;40.89;102045.25;5066010;28;20020;-43
2022/02/12 06:32:10;;;;;;;0.40;0.10;;;;;;;18.50;40.90;102049.72;5066741;28;20123;-45
2022/02/12 06:34:36;;;;;;;0.40;0.00;;;;;;;18.50;40.90;102055.00;5066594;28;20038;-39
2022/02/12 06:37:02;;;;;;;0.10;0.00;;;;;;;18.49;40.82;102063.88;5066536;28;20040;-41
2022/02/12 06:39:27;;;;;;;1.15;0.38;;;;;;;18.49;40.92;102066.53;5065986;28;20087;-43
2022/02/12 06:41:53;;;;;;;0.20;0.00;;;;;;;18.48;40.89;102056.97;5066156;28;20063;-42
2022/02/12 06:44:19;;;;;;;0.20;0.00;;;;;;;18.47;40.76;102066.69;5066217;28;20035;-39
2022/02/12 06:46:44;;;;;;;0.15;0.00;;;;;;;18.46;40.84;102064.22;5066583;28;20035;-41
2022/02/12 06:49:10;;;;;;;0.20;0.03;;;;;;;18.46;40.77;102075.59;5065926;28;20109;-40
2022/02/12 06:51:36;;;;;;;0.17;0.00;;;;;;;18.45;40.85;102081.03;5066075;28;20032;-40
2022/02/12 06:54:03;;;;;;;0.10;0.00;;;;;;;18.44;40.93;102093.38;5066395;28;20060;-42
2022/02/12 06:56:28;;;;;;;0.10;0.00;;;;;;;18.43;40.97;102083.81;5055385;28;20453;-43
2022/02/12 06:58:54;;;;;;;0.70;0.10;;;;;;;18.44;41.10;102097.84;5046047;28;20036;-41
2022/02/12 07:01:20;;;;;;;0.20;0.05;;;;;;;18.43;41.05;102096.22;5056928;28;20090;-40
2022/02/12 07:03:45;;;;;;;0.22;0.00;;;;;;;18.43;41.24;102081.19;5065339;28;20049;-42
2022/02/12 07:06:11;;;;;;;0.20;0.00;;;;;;;18.44;41.09;102089.91;5047010;28;20029;-42
2022/02/12 07:08:36;;;;;;;0.38;0.10;;;;;;;18.44;41.09;102105.75;5065893;28;20040;-40
2022/02/12 07:11:02;;;;;;;0.47;0.10;;;;;;;18.44;40.97;102103.13;5067011;28;20051;-38
2022/02/12 07:13:27;;;;;;;0.25;0.10;;;;;;;18.47;40.95;102094.88;5059516;28;20086;-41
2022/02/12 07:15:54;;;;;;;0.30;0.10;;;;;;;18.50;40.95;102098.03;5064876;28;20046;-39
2022/02/12 07:18:21;;;;;;;0.22;0.10;;;;;;;18.53;40.92;102110.94;5065728;28;20036;-40
2022/02/12 07:20:46;;;;;;;0.20;0.00;;;;;;;18.57;40.88;102106.16;5065245;28;20033;-41
2022/02/12 07:23:12;;;;;;;0.32;0.17;;;;;;;18.60;40.88;102102.38;5067217;28;20527;-41
2022/02/12 07:25:38;;;;;;;0.40;0.05;;;;;;;18.63;40.94;102118.78;5066087;28;20391;-41
2022/02/12 07:28:04;;;;;;;0.40;0.10;;;;;;;18.67;40.82;102109.56;5065069;28;20458;-41
2022/02/12 07:30:29;;;;;;;0.22;0.10;;;;;;;18.73;40.90;102110.75;5065434;28;20032;-41
2022/02/12 07:32:55;;;;;;;0.38;0.10;;;;;;;18.79;40.77;102118.84;5065169;28;20107;-41
2022/02/12 07:35:20;;;;;;;0.10;0.10;;;;;;;18.83;40.75;102120.19;5039707;28;20033;-42
2022/02/12 07:37:48;;;;;;;1.52;0.20;;;;;;;18.90;40.69;102123.84;5066917;28;20112;-40
2022/02/12 07:40:16;;;;;;;0.30;0.10;;;;;;;18.96;40.66;102118.91;5065682;28;20032;-40
2022/02/12 07:42:43;;;;;;;0.28;0.10;;;;;;;19.01;40.55;102132.47;5066784;28;20020;-39
2022/02/12 07:45:08;;;;;;;0.20;0.10;;;;;;;19.08;40.58;102130.84;5062727;28;20522;-43
2022/02/12 07:47:36;;;;;;;0.47;0.10;;;;;;;19.12;40.57;102127.72;5066486;28;20111;-42
2022/02/12 07:50:03;;;;;;;0.20;0.10;;;;;;;19.20;40.51;102137.50;5066114;28;20025;-43
2022/02/12 07:52:29;;;;;;;0.50;0.10;;;;;;;19.24;40.42;102122.97;5046017;28;20040;-42
2022/02/12 07:54:54;;;;;;;0.75;0.10;;;;;;;19.32;40.29;102130.94;5065030;28;20043;-39
2022/02/12 07:57:20;;;;;;;0.20;0.10;;;;;;;19.39;40.41;102139.00;5065331;28;20589;-42
2022/02/12 07:59:45;;;;;;;0.47;0.10;;;;;;;19.44;40.35;102134.06;5062844;28;20116;-44
2022/02/12 08:02:11;;;;;;;0.28;0.10;;;;;;;19.49;40.08;102137.88;5065156;28;20033;-41
2022/02/12 08:04:36;;;;;;;0.20;0.10;;;;;;;19.59;40.06;102139.59;5066218;28;20032;-40
2022/02/12 08:09:47;;;;;;;0.45;0.10;;;;;;;19.72;39.92;102134.66;5069631;28;20541;-43
2022/02/12 08:12:18;;;;;;;0.40;0.10;;;;;;;19.79;39.87;102138.31;5069059;28;20045;-39
2022/02/12 08:14:52;;;;;;;0.50;0.10;;;;;;;19.85;39.87;102137.63;5059398;28;20044;-43
2022/02/12 08:17:19;;;;;;;0.17;0.10;;;;;;;19.92;39.86;102141.25;5069134;28;20563;-41
2022/02/12 08:19:47;;;;;;;0.20;0.03;;;;;;;19.98;39.56;102145.88;5069156;28;20063;-44
2022/02/12 08:22:13;;;;;;;0.50;0.10;;;;;;;20.05;39.75;102149.53;5064682;28;20055;-39
2022/02/12 08:24:39;;;;;;;1.38;0.10;;;;;;;20.12;39.67;102153.16;5069957;28;20089;-41
2022/02/12 08:27:05;;;;;;;0.20;0.10;;;;;;;20.18;39.52;102141.91;5068255;28;20025;-41
2022/02/12 08:29:31;;;;;;;0.20;0.10;;;;;;;20.25;39.35;102146.56;5068593;28;20036;-44
2022/02/12 08:32:00;;;;;;;0.20;0.05;;;;;;;20.28;39.37;102144.41;5068471;28;20020;-40
2022/02/12 08:34:27;;;;;;;0.38;0.00;;;;;;;20.33;39.38;102157.94;5068364;28;20165;-44
2022/02/12 08:36:54;;;;;;;0.10;0.00;;;;;;;20.38;39.25;102149.50;5065552;28;20468;-41
2022/02/12 08:39:20;;;;;;;0.30;0.10;;;;;;;20.43;39.25;102145.38;5061220;28;20147;-41
2022/02/12 08:41:47;;;;;;;0.52;0.00;;;;;;;20.47;39.13;102144.03;5069491;28;20111;-43
2022/02/12 08:44:12;;;;;;;0.22;0.10;;;;;;;20.52;38.93;102152.31;5069395;28;20044;-42
2022/02/12 08:46:38;;;;;;;0.17;0.00;;;;;;;20.56;38.84;102144.03;5069576;28;20550;-41
2022/02/12 08:49:04;;;;;;;0.20;0.10;;;;;;;20.60;39.06;102155.94;5069387;28;20090;-41
2022/02/12 08:51:29;;;;;;;0.50;0.10;;;;;;;20.64;38.83;102144.00;5068761;28;20087;-41
2022/02/12 08:53:55;;;;;;;0.40;0.10;;;;;;;20.69;38.79;102146.97;5066629;28;20052;-42
2022/02/12 08:56:23;;;;;;;0.80;0.10;;;;;;;20.76;38.72;102150.59;5064093;28;20028;-41
2022/02/12 08:58:49;;;;;;;1.10;0.10;;;;;;;20.79;38.64;102150.25;5065699;28;20032;-50
2022/02/12 09:01:15;;;;;;;1.38;0.10;;;;;;;20.81;38.74;102153.53;5064107;28;20025;-43
2022/02/12 09:03:40;;;;;;;1.75;0.10;;;;;;;20.86;39.50;102152.03;5063679;28;20357;-42
2022/02/12 09:06:06;;;;;;;3.13;0.10;;;;;;;20.92;39.76;102152.34;5064435;28;20060;-42
2022/02/12 09:08:32;;;;;;;1.88;0.10;;;;;;;20.90;39.44;102152.50;5068220;28;20043;-41
2022/02/12 09:10:57;;;;;;;0.60;0.10;;;;;;;20.91;39.39;102156.00;5066898;28;20774;-41
2022/02/12 09:13:23;;;;;;;0.43;0.10;;;;;;;20.86;39.67;102152.03;5063596;28;20578;-39
2022/02/12 09:15:49;;;;;;;2.28;0.10;;;;;;;20.85;39.53;102152.19;5067829;28;20020;-47
2022/02/12 09:18:15;;;;;;;0.30;0.10;;;;;;;20.82;39.63;102156.00;5050402;28;20131;-43
2022/02/12 09:20:41;;;;;;;0.57;0.10;;;;;;;20.82;39.50;102160.47;5050242;28;20174;-43
2022/02/12 09:23:07;;;;;;;1.55;0.03;;;;;;;20.83;39.68;102155.03;5067815;28;20040;-42
2022/02/12 09:25:33;;;;;;;2.28;0.00;;;;;;;20.82;39.70;102161.31;5046198;28;20028;-42
2022/02/12 09:27:58;;;;;;;0.40;0.00;;;;;;;20.80;39.35;102165.94;5062210;28;20029;-41
2022/02/12 09:30:24;;;;;;;5.22;0.10;;;;;;;20.78;39.59;102169.81;5044861;28;20080;-46
2022/02/12 09:32:53;;;;;;;1.73;0.00;;;;;;;20.76;39.67;102185.84;5050345;28;20546;-41
2022/02/12 09:35:20;;;;;;;0.32;0.03;;;;;;;20.74;39.69;102174.59;5050543;28;20044;-40
2022/02/12 09:37:47;;;;;;;2.90;0.10;;;;;;;20.71;39.35;102166.19;5066461;28;20043;-41
2022/02/12 09:40:13;;;;;;;2.47;0.00;;;;;;;20.73;39.80;102151.78;5049301;28;20090;-42
2022/02/12 09:42:39;;;;;;;9.73;0.20;;;;;;;20.71;39.82;102174.94;5066461;28;20027;-43
2022/02/12 09:45:06;;;;;;;1.45;0.10;;;;;;;20.68;39.94;102171.81;5068247;28;20028;-42
2022/02/12 09:47:47;;;;;;;1.63;0.00;;;;;;;20.63;39.84;102163.53;5065272;28;21780;-38
2022/02/12 09:50:14;;;;;;;5.80;0.20;;;;;;;20.61;39.90;102178.78;5047113;28;20111;-45
2022/02/12 09:52:45;;;;;;;2.83;0.20;;;;;;;20.58;39.90;102172.00;5047025;28;20035;-43
2022/02/12 09:55:11;;;;;;;3.53;0.10;;;;;;;20.56;39.75;102167.84;5050373;28;20444;-43
2022/02/12 09:57:38;;;;;;;3.28;0.20;;;;;;;20.52;39.66;102170.00;5049317;28;20068;-44
2022/02/12 10:00:08;;;;;;;1.92;0.00;;;;;;;20.51;39.70;102176.31;5067873;28;20123;-39
2022/02/12 10:02:34;;;;;;;2.65;0.00;;;;;;;20.49;39.53;102171.19;5050285;28;20789;-42
2022/02/12 10:05:25;;;;;;;0.70;0.08;;;;;;;20.46;39.72;102163.56;5067982;28;20116;-42
2022/02/12 10:08:00;;;;;;;4.07;0.10;;;;;;;20.47;40.10;102169.69;5049389;28;20043;-44
2022/02/12 10:10:28;;;;;;;2.10;0.43;;;;;;;20.46;40.74;102179.44;5050014;28;20657;-44
2022/02/12 10:13:21;;;;;;;1.52;0.15;;;;;;;20.46;41.03;102174.16;5065374;28;20040;-40
2022/02/12 10:15:57;;;;;;;2.40;0.08;;;;;;;20.47;40.95;102162.56;5033938;28;20051;-42
2022/02/12 10:18:27;;;;;;;2.60;0.10;;;;;;;20.44;40.88;102157.63;5067900;28;20032;-42
2022/02/12 10:20:55;;;;;;;0.98;0.10;;;;;;;20.44;40.52;102164.72;5065760;28;20032;-41
2022/02/12 10:23:26;;;;;;;0.70;0.10;;;;;;;20.41;40.40;102160.59;5067552;28;20024;-45
2022/02/12 10:26:08;;;;;;;0.55;0.10;;;;;;;20.37;40.09;102153.94;5049542;28;20021;-41
2022/02/12 10:28:36;;;;;;;0.20;0.00;;;;;;;20.38;40.09;102157.47;5046197;28;20484;-42
2022/02/12 10:31:03;;;;;;;0.75;0.10;;;;;;;20.35;40.07;102155.13;5064863;28;20479;-41
2022/02/12 10:33:29;;;;;;;0.32;0.05;;;;;;;20.36;39.95;102162.06;5066250;28;20111;-43
2022/02/12 10:35:56;;;;;;;1.10;0.00;;;;;;;20.34;39.89;102170.16;5066649;28;20029;-40
2022/02/12 10:38:25;;;;;;;1.70;0.17;;;;;;;20.36;39.75;102160.25;5048033;28;20056;-42
2022/02/12 10:41:05;;;;;;;2.08;0.20;;;;;;;20.36;39.94;102159.41;5064125;28;20063;-41
2022/02/12 10:43:31;;;;;;;1.00;0.00;;;;;;;20.38;40.00;102144.22;5049407;28;20488;-43
2022/02/12 10:45:57;;;;;;;1.42;0.10;;;;;;;20.39;39.51;102143.22;5066790;28;20035;-41
2022/02/12 10:48:24;;;;;;;0.75;0.00;;;;;;;20.39;39.63;102141.41;5048082;28;20119;-43
2022/02/12 10:51:01;;;;;;;0.60;0.10;;;;;;;20.36;39.50;102131.13;5066326;28;20385;-46
2022/02/12 10:53:26;;;;;;;0.30;0.10;;;;;;;20.34;39.46;102133.09;5065779;28;20051;-42
2022/02/12 10:56:03;;;;;;;0.20;0.00;;;;;;;20.32;39.47;102132.44;5066945;28;20550;-42
2022/02/12 10:58:29;;;;;;;0.20;0.10;;;;;;;20.33;39.44;102135.94;5048826;28;20522;-44
2022/02/12 11:00:55;;;;;;;0.20;0.03;;;;;;;20.29;39.01;102119.59;5067756;28;20395;-44
2022/02/12 11:03:21;;;;;;;0.73;0.00;;;;;;;20.25;38.28;102120.09;5064883;28;20135;-44
2022/02/12 11:05:52;;;;;;;0.70;0.10;;;;;;;20.20;36.92;102116.13;5043449;28;20117;-40
2022/02/12 11:08:25;;;;;;;3.03;0.10;;;;;;;20.15;36.41;102123.72;5065050;28;20035;-38
2022/02/12 11:10:52;;;;;;;2.00;0.00;;;;;;;20.14;36.28;102122.06;5064286;28;20037;-42
2022/02/12 11:13:21;;;;;;;1.17;0.10;;;;;;;20.12;36.15;102123.22;5062534;28;20101;-42
2022/02/12 11:15:49;;;;;;;1.05;0.10;;;;;;;20.11;36.02;102111.00;5062776;28;20500;-41
2022/02/12 11:18:19;;;;;;;2.38;0.10;;;;;;;20.09;36.18;102105.03;5065005;28;20028;-43
2022/02/12 11:20:46;;;;;;;0.90;0.10;;;;;;;20.08;36.34;102116.63;5065320;28;20036;-39
2022/02/12 11:23:21;;;;;;;4.47;0.00;;;;;;;20.05;36.16;102112.50;5065225;28;20372;-44
2022/02/12 11:25:50;;;;;;;2.05;0.20;;;;;;;20.07;36.02;102096.44;5040721;28;20443;-39
2022/02/12 11:28:20;;;;;;;0.82;0.32;;;;;;;20.06;35.78;102090.34;5062743;28;20033;-41
2022/02/12 11:30:45;;;;;;;0.82;0.10;;;;;;;20.03;35.63;102088.03;5065046;28;20033;-45